Time;durP1;ratioP1;P1;durP2;ratioP2;P2;SDS_P1;SDS_P2;PMS_P1;PMS_P2;Temp;Humidity;BMP_temperature;BMP_pressure;BME280_temperature;BME280_humidity;BME280_pressure;Samples;Min_cycle;Max_cycle;Signal;HPM_P1;HPM_P2
2021/12/01 00:00:54;;;;;;;0.70;0.70;;;4.50;99.90;;;;;;6162134;23;20018;-77
2021/12/01 00:03:22;;;;;;;0.68;0.68;;;4.50;99.90;;;;;;6154941;23;20029;-77
2021/12/01 00:05:50;;;;;;;0.70;0.70;;;4.50;99.90;;;;;;6160880;23;20688;-78
2021/12/01 00:08:19;;;;;;;0.57;0.57;;;4.50;99.90;;;;;;6162720;23;20020;-78
2021/12/01 00:10:47;;;;;;;0.80;0.80;;;4.50;99.90;;;;;;6156438;23;20022;-78
2021/12/01 00:13:18;;;;;;;0.77;0.77;;;4.50;99.90;;;;;;6162446;23;20066;-78
2021/12/01 00:15:48;;;;;;;;;;;4.60;99.90;;;;;;6153943;23;20021;-78
2021/12/01 00:18:16;;;;;;;0.50;0.50;;;4.50;99.90;;;;;;6182712;23;19959;-79
2021/12/01 00:20:45;;;;;;;0.52;0.52;;;4.50;99.90;;;;;;6150578;23;20440;-78
2021/12/01 00:23:13;;;;;;;0.70;0.70;;;4.40;99.90;;;;;;6155329;23;20025;-78
2021/12/01 00:25:42;;;;;;;0.60;0.60;;;4.50;99.90;;;;;;6125213;23;20021;-78
2021/12/01 00:28:10;;;;;;;0.70;0.70;;;4.50;99.90;;;;;;6151221;23;20028;-79
2021/12/01 00:30:40;;;;;;;0.68;0.68;;;4.60;99.90;;;;;;6157511;23;20028;-77
2021/12/01 00:33:10;;;;;;;0.80;0.80;;;4.50;99.90;;;;;;6162330;23;20508;-78
2021/12/01 00:35:38;;;;;;;0.60;0.60;;;4.50;99.90;;;;;;6152002;23;20030;-78
2021/12/01 00:38:06;;;;;;;0.68;0.68;;;4.50;99.90;;;;;;6150372;23;20028;-78
2021/12/01 00:40:34;;;;;;;0.70;0.70;;;4.60;99.90;;;;;;6161663;23;20013;-77
2021/12/01 00:43:02;;;;;;;0.65;0.65;;;4.60;99.90;;;;;;6154585;23;20021;-78
2021/12/01 00:45:32;;;;;;;0.50;0.50;;;4.60;99.90;;;;;;6160941;23;20010;-77
2021/12/01 00:48:01;;;;;;;0.77;0.77;;;4.70;99.90;;;;;;6152245;23;20480;-77
2021/12/01 00:50:34;;;;;;;0.70;0.70;;;4.70;99.90;;;;;;6158213;23;20025;-78
2021/12/01 00:53:05;;;;;;;2.05;0.70;;;4.70;99.90;;;;;;6162721;23;20021;-78
2021/12/01 00:55:33;;;;;;;0.80;0.80;;;4.70;99.90;;;;;;6153785;23;20026;-78
2021/12/01 00:58:02;;;;;;;0.63;0.63;;;4.80;99.90;;;;;;6151996;23;20505;-78
2021/12/01 01:00:31;;;;;;;0.60;0.60;;;4.80;99.90;;;;;;6163830;23;20021;-78
2021/12/01 01:02:59;;;;;;;0.52;0.52;;;4.80;99.90;;;;;;6158044;23;20515;-78
2021/12/01 01:05:27;;;;;;;0.70;0.70;;;4.70;99.90;;;;;;6164035;23;20013;-78
2021/12/01 01:07:55;;;;;;;0.50;0.50;;;4.70;99.90;;;;;;6154489;23;20045;-78
2021/12/01 01:18:47;;;;;;;0.50;0.50;;;4.80;99.90;;;;;;6158912;23;20025;-78
2021/12/01 01:21:16;;;;;;;0.68;0.68;;;4.80;99.90;;;;;;6163568;23;20014;-77
2021/12/01 01:23:44;;;;;;;0.50;0.50;;;4.80;99.90;;;;;;6154805;23;20618;-78
2021/12/01 01:26:17;;;;;;;0.70;0.70;;;4.80;99.90;;;;;;6160126;23;20021;-78
2021/12/01 01:28:46;;;;;;;0.70;0.70;;;4.70;99.90;;;;;;6164109;23;20009;-78
2021/12/01 01:31:16;;;;;;;0.70;0.70;;;4.70;99.90;;;;;;6156689;23;20029;-78
2021/12/01 01:33:45;;;;;;;0.60;0.60;;;4.80;99.90;;;;;;6163339;23;20017;-78
2021/12/01 01:36:13;;;;;;;0.60;0.60;;;4.80;99.90;;;;;;6163631;23;20018;-78
2021/12/01 01:38:42;;;;;;;0.68;0.68;;;4.80;99.90;;;;;;6159292;23;20033;-78
2021/12/01 01:41:13;;;;;;;0.50;0.50;;;4.80;99.90;;;;;;6162420;23;20014;-78
2021/12/01 01:43:42;;;;;;;0.50;0.50;;;4.80;99.90;;;;;;6151486;23;20028;-78
2021/12/01 01:46:13;;;;;;;0.60;0.60;;;4.80;99.90;;;;;;6157520;23;20029;-78
2021/12/01 01:49:05;;;;;;;0.73;0.73;;;4.90;99.90;;;;;;6162049;23;20017;-78
2021/12/01 01:52:11;;;;;;;0.50;0.50;;;4.90;99.90;;;;;;6145635;23;20028;-78
2021/12/01 01:55:00;;;;;;;0.50;0.50;;;4.90;99.90;;;;;;6153271;23;20029;-77
2021/12/01 01:58:03;;;;;;;0.60;0.60;;;4.90;99.90;;;;;;6159742;23;20017;-77
2021/12/01 02:00:36;;;;;;;0.52;0.52;;;4.90;99.90;;;;;;6159192;23;20020;-78
2021/12/01 02:03:03;;;;;;;0.60;0.60;;;4.90;99.90;;;;;;6154069;23;20032;-77
2021/12/01 02:05:37;;;;;;;0.63;0.63;;;4.90;99.90;;;;;;6149633;23;20029;-77
2021/12/01 02:08:05;;;;;;;0.75;0.75;;;5.00;99.90;;;;;;6150865;23;20029;-77
2021/12/01 02:10:32;;;;;;;0.50;0.50;;;5.10;99.90;;;;;;6152521;23;20356;-77
2021/12/01 02:13:00;;;;;;;0.60;0.60;;;5.10;99.90;;;;;;6159708;23;20013;-78
2021/12/01 02:15:28;;;;;;;0.40;0.40;;;5.10;99.90;;;;;;6149594;23;20189;-82
2021/12/01 02:17:56;;;;;;;0.65;0.65;;;5.10;99.90;;;;;;6158710;23;20013;-83
2021/12/01 02:20:23;;;;;;;0.50;0.50;;;5.10;99.90;;;;;;6160417;23;20017;-82
2021/12/01 02:22:51;;;;;;;0.52;0.52;;;5.20;99.90;;;;;;6155715;23;20030;-82
2021/12/01 02:25:24;;;;;;;0.52;0.52;;;5.10;99.90;;;;;;6159311;23;20309;-82
2021/12/01 02:27:51;;;;;;;0.50;0.50;;;5.20;99.90;;;;;;6152255;23;20022;-82
2021/12/01 02:30:19;;;;;;;0.50;0.50;;;5.20;99.90;;;;;;6124363;23;20018;-82
2021/12/01 02:32:47;;;;;;;0.50;0.50;;;5.10;99.90;;;;;;6162111;23;20013;-82
2021/12/01 02:35:14;;;;;;;0.50;0.50;;;5.20;99.90;;;;;;6152442;23;20021;-82
2021/12/01 02:37:42;;;;;;;0.60;0.60;;;5.20;99.90;;;;;;6161109;23;20467;-82
2021/12/01 02:40:11;;;;;;;0.50;0.50;;;5.30;99.90;;;;;;6158535;23;20045;-81
2021/12/01 02:42:38;;;;;;;0.60;0.60;;;5.30;99.90;;;;;;6151159;23;20358;-81
2021/12/01 02:45:07;;;;;;;0.60;0.60;;;5.40;99.90;;;;;;6152029;23;20029;-82
2021/12/01 02:47:35;;;;;;;0.52;0.52;;;5.40;99.90;;;;;;6151356;23;20029;-82
2021/12/01 02:50:03;;;;;;;0.55;0.55;;;5.40;99.90;;;;;;6160757;23;20013;-82
2021/12/01 02:52:35;;;;;;;0.50;0.50;;;5.40;99.90;;;;;;6162950;23;20035;-81
2021/12/01 02:55:05;;;;;;;0.50;0.50;;;5.40;99.90;;;;;;6156183;23;20187;-82
2021/12/01 02:57:47;;;;;;;0.60;0.60;;;5.50;99.90;;;;;;6163243;23;20024;-83
2021/12/01 03:00:16;;;;;;;0.50;0.50;;;5.50;99.90;;;;;;6159766;23;20033;-83
2021/12/01 03:02:45;;;;;;;0.77;0.60;;;5.50;99.90;;;;;;6150974;23;20037;-83
2021/12/01 03:05:15;;;;;;;0.60;0.60;;;5.60;99.90;;;;;;6126496;23;20026;-83
2021/12/01 03:07:44;;;;;;;0.50;0.50;;;5.40;99.90;;;;;;6154076;23;20037;-83
2021/12/01 03:10:13;;;;;;;0.63;0.60;;;5.50;99.90;;;;;;6148942;23;20026;-82
2021/12/01 03:12:42;;;;;;;0.50;0.50;;;5.50;99.90;;;;;;6163016;23;20013;-82
2021/12/01 03:15:12;;;;;;;0.43;0.43;;;5.60;99.90;;;;;;6156134;23;20036;-82
2021/12/01 03:17:40;;;;;;;0.50;0.50;;;5.50;99.90;;;;;;6150600;23;20018;-82
2021/12/01 03:20:09;;;;;;;0.52;0.52;;;5.60;99.90;;;;;;6151068;23;20021;-81
2021/12/01 03:22:37;;;;;;;0.68;0.68;;;5.50;99.90;;;;;;6126458;23;20477;-82
2021/12/01 03:25:12;;;;;;;0.60;0.60;;;5.60;99.90;;;;;;6126211;23;20557;-82
2021/12/01 03:27:40;;;;;;;0.40;0.40;;;5.50;99.90;;;;;;6126747;23;20022;-82
2021/12/01 03:30:10;;;;;;;0.60;0.60;;;5.60;99.90;;;;;;6158743;23;20029;-82
2021/12/01 03:32:39;;;;;;;0.40;0.40;;;5.50;99.90;;;;;;6163251;23;20323;-82
2021/12/01 03:35:10;;;;;;;0.50;0.50;;;5.50;99.90;;;;;;6156289;23;20418;-82
2021/12/01 03:37:40;;;;;;;0.50;0.50;;;5.50;99.90;;;;;;6160450;23;20016;-82
2021/12/01 03:40:12;;;;;;;0.57;0.57;;;5.60;99.90;;;;;;6145408;23;20032;-80
2021/12/01 03:42:40;;;;;;;0.52;0.52;;;5.60;99.90;;;;;;6154234;23;20040;-79
2021/12/01 03:45:08;;;;;;;0.50;0.50;;;5.50;99.90;;;;;;6101166;23;20017;-79
2021/12/01 03:47:36;;;;;;;0.50;0.50;;;5.50;99.90;;;;;;6150585;23;20052;-82
2021/12/01 03:50:05;;;;;;;0.60;0.60;;;5.50;99.90;;;;;;6123327;23;20410;-82
2021/12/01 03:52:33;;;;;;;0.50;0.50;;;5.40;99.90;;;;;;6124978;23;20021;-81
2021/12/01 03:55:01;;;;;;;0.50;0.50;;;5.60;99.90;;;;;;6152080;23;20025;-81
2021/12/01 03:57:29;;;;;;;0.60;0.60;;;5.60;99.90;;;;;;6161220;23;20450;-82
2021/12/01 03:59:57;;;;;;;0.52;0.52;;;5.60;99.90;;;;;;6150208;23;20026;-82
2021/12/01 04:02:24;;;;;;;0.63;0.63;;;5.60;99.90;;;;;;6155655;23;20033;-81
2021/12/01 04:04:52;;;;;;;0.50;0.50;;;5.80;99.90;;;;;;6160953;23;20025;-81
2021/12/01 04:07:20;;;;;;;0.50;0.50;;;5.60;99.90;;;;;;6155061;23;20025;-82
2021/12/01 04:09:48;;;;;;;0.40;0.40;;;5.70;99.90;;;;;;6160635;23;20021;-82
2021/12/01 04:12:16;;;;;;;0.85;0.70;;;5.60;99.90;;;;;;6162768;23;20020;-81
2021/12/01 04:14:45;;;;;;;0.40;0.40;;;5.60;99.90;;;;;;6155926;23;20531;-82
2021/12/01 04:17:12;;;;;;;0.50;0.50;;;5.70;99.90;;;;;;6151476;23;20037;-81
2021/12/01 04:19:40;;;;;;;0.40;0.40;;;5.70;99.90;;;;;;6152296;23;20021;-82
2021/12/01 04:22:08;;;;;;;0.60;0.60;;;5.70;99.90;;;;;;6159446;23;20036;-81
2021/12/01 04:24:36;;;;;;;0.50;0.50;;;5.70;99.90;;;;;;6162257;23;20594;-81
2021/12/01 04:27:09;;;;;;;0.50;0.50;;;5.70;99.90;;;;;;6156862;23;20040;-81
2021/12/01 04:29:37;;;;;;;0.63;0.63;;;5.70;99.90;;;;;;6163272;23;20010;-82
2021/12/01 04:32:05;;;;;;;0.52;0.52;;;5.60;99.90;;;;;;6153867;23;20033;-82
2021/12/01 04:34:34;;;;;;;0.60;0.60;;;5.60;99.90;;;;;;6159890;23;20029;-82
2021/12/01 04:37:01;;;;;;;0.50;0.50;;;5.70;99.90;;;;;;6164747;23;20468;-84
2021/12/01 04:39:29;;;;;;;0.50;0.50;;;5.60;99.90;;;;;;6155845;23;20461;-81
2021/12/01 04:42:05;;;;;;;0.95;0.73;;;5.60;99.90;;;;;;6162399;23;21809;-82
2021/12/01 04:44:35;;;;;;;0.75;0.75;;;5.40;99.90;;;;;;6164523;23;20469;-81
2021/12/01 04:47:09;;;;;;;0.50;0.50;;;5.40;99.90;;;;;;6154731;23;20033;-81
2021/12/01 04:49:39;;;;;;;0.50;0.50;;;5.30;99.90;;;;;;6154641;23;20014;-81
2021/12/01 04:52:11;;;;;;;0.50;0.50;;;5.40;99.90;;;;;;6127298;23;20029;-85
2021/12/01 04:54:39;;;;;;;0.68;0.68;;;5.40;99.90;;;;;;6151647;23;20318;-82
2021/12/01 04:57:07;;;;;;;0.70;0.70;;;5.40;99.90;;;;;;6163215;23;20714;-80
2021/12/01 04:59:53;;;;;;;0.60;0.60;;;5.40;99.90;;;;;;6155814;23;20022;-81
2021/12/01 05:02:55;;;;;;;0.50;0.50;;;5.50;99.90;;;;;;6159662;23;20029;-82
2021/12/01 05:06:08;;;;;;;1.17;1.15;;;5.50;99.90;;;;;;6160560;23;20024;-81
2021/12/01 05:09:04;;;;;;;0.50;0.50;;;5.50;99.90;;;;;;6162259;23;20340;-80
2021/12/01 05:11:34;;;;;;;0.65;0.65;;;5.50;99.90;;;;;;6126510;23;20029;-80
2021/12/01 05:14:12;;;;;;;1.38;1.02;;;5.50;99.90;;;;;;6159326;23;20029;-80
2021/12/01 05:16:41;;;;;;;0.70;0.70;;;5.60;99.90;;;;;;6128475;23;20037;-80
2021/12/01 05:19:10;;;;;;;0.70;0.70;;;5.60;99.90;;;;;;6157747;23;20037;-80
2021/12/01 05:21:40;;;;;;;0.60;0.60;;;5.50;99.90;;;;;;6163778;23;20021;-80
2021/12/01 05:24:08;;;;;;;0.70;0.70;;;5.50;99.90;;;;;;6152889;23;20036;-80
2021/12/01 05:26:36;;;;;;;0.55;0.55;;;5.50;99.90;;;;;;6157217;23;20413;-82
2021/12/01 05:29:05;;;;;;;0.70;0.70;;;5.60;99.90;;;;;;6162470;23;20021;-80
2021/12/01 05:31:33;;;;;;;0.60;0.60;;;5.50;99.90;;;;;;6155614;23;20048;-80
2021/12/01 05:34:01;;;;;;;0.60;0.60;;;5.50;99.90;;;;;;6160028;23;20034;-80
2021/12/01 05:36:29;;;;;;;0.60;0.60;;;5.60;99.90;;;;;;6163233;23;20013;-80
2021/12/01 05:38:57;;;;;;;0.70;0.70;;;5.50;99.90;;;;;;6157404;23;20021;-80
2021/12/01 05:41:25;;;;;;;0.68;0.68;;;5.50;99.90;;;;;;6101588;23;20018;-81
2021/12/01 05:43:53;;;;;;;0.60;0.60;;;5.50;99.90;;;;;;6153762;23;20345;-80
2021/12/01 05:46:21;;;;;;;0.60;0.60;;;5.60;99.90;;;;;;6151089;23;20030;-81
2021/12/01 05:48:51;;;;;;;0.60;0.60;;;5.50;99.90;;;;;;6163286;23;20021;-82
2021/12/01 05:51:20;;;;;;;0.50;0.50;;;5.60;99.90;;;;;;6153693;23;20029;-79
2021/12/01 05:53:49;;;;;;;0.60;0.60;;;5.60;99.90;;;;;;6161748;23;20017;-80
2021/12/01 05:56:16;;;;;;;0.50;0.50;;;5.50;99.90;;;;;;6161237;23;20028;-80
2021/12/01 05:58:44;;;;;;;0.50;0.50;;;5.50;99.90;;;;;;6157310;23;20021;-80
2021/12/01 06:01:12;;;;;;;0.60;0.60;;;5.50;99.90;;;;;;6152035;23;20022;-81
2021/12/01 06:03:42;;;;;;;2.13;1.45;;;5.50;99.90;;;;;;6103022;23;20021;-81
2021/12/01 06:06:10;;;;;;;0.60;0.60;;;5.30;99.90;;;;;;6160507;23;20022;-81
2021/12/01 06:08:38;;;;;;;1.00;1.00;;;5.30;99.90;;;;;;6161796;23;20017;-82
2021/12/01 06:11:06;;;;;;;0.82;0.82;;;5.30;99.90;;;;;;6150272;23;20025;-84
2021/12/01 06:13:34;;;;;;;0.60;0.60;;;5.30;99.90;;;;;;6150651;23;20025;-84
2021/12/01 06:16:03;;;;;;;0.52;0.52;;;5.10;99.90;;;;;;6101603;23;20357;-83
2021/12/01 06:18:31;;;;;;;0.63;0.63;;;5.00;99.90;;;;;;6157510;23;20330;-83
2021/12/01 06:21:10;;;;;;;0.80;0.80;;;5.00;99.90;;;;;;6157982;23;20010;-84
2021/12/01 06:23:51;;;;;;;0.50;0.50;;;4.90;99.90;;;;;;6147631;23;20026;-83
2021/12/01 06:26:23;;;;;;;0.60;0.60;;;5.00;99.90;;;;;;6153906;23;20032;-83
2021/12/01 06:29:02;;;;;;;0.60;0.60;;;4.90;99.90;;;;;;6101378;23;20357;-83
2021/12/01 06:31:33;;;;;;;0.50;0.50;;;4.90;99.90;;;;;;6122525;23;20032;-82
2021/12/01 06:34:01;;;;;;;0.50;0.50;;;4.80;99.90;;;;;;6160248;23;20029;-81
2021/12/01 06:36:28;;;;;;;0.50;0.50;;;4.80;99.90;;;;;;6162958;23;20326;-83
2021/12/01 06:38:56;;;;;;;0.60;0.60;;;4.80;99.90;;;;;;6100721;23;20018;-83
2021/12/01 06:41:34;;;;;;;0.55;0.55;;;4.60;99.90;;;;;;6122022;23;20032;-83
2021/12/01 06:44:23;;;;;;;;;;;;;;;;;;;;;
2021/12/01 06:46:52;;;;;;;0.50;0.50;;;4.70;99.90;;;;;;6155092;23;20036;-82
2021/12/01 06:49:26;;;;;;;1.63;0.65;;;4.70;99.90;;;;;;6125121;23;20467;-82
2021/12/01 06:52:00;;;;;;;0.50;0.50;;;4.60;99.90;;;;;;6149631;23;20025;-82
2021/12/01 06:54:32;;;;;;;0.60;0.60;;;4.60;99.90;;;;;;6098718;23;20040;-83
2021/12/01 06:57:29;;;;;;;5.30;1.15;;;4.60;99.90;;;;;;6125244;23;20063;-83
2021/12/01 07:00:09;;;;;;;0.70;0.70;;;4.50;99.90;;;;;;6114063;23;20349;-81
2021/12/01 07:02:37;;;;;;;0.60;0.60;;;4.50;99.90;;;;;;6156288;23;20224;-81
2021/12/01 07:05:06;;;;;;;0.70;0.70;;;4.50;99.90;;;;;;6149187;23;20449;-84
2021/12/01 07:07:35;;;;;;;0.73;0.73;;;4.50;99.90;;;;;;6123998;23;20372;-83
2021/12/01 07:10:04;;;;;;;0.60;0.60;;;4.50;99.90;;;;;;6156786;23;20025;-83
2021/12/01 07:12:32;;;;;;;0.60;0.60;;;4.50;99.90;;;;;;6100740;23;20033;-84
2021/12/01 07:15:39;;;;;;;0.80;0.70;;;4.40;99.90;;;;;;6123552;23;20038;-83
2021/12/01 07:18:10;;;;;;;2.72;1.95;;;4.50;99.90;;;;;;6148577;23;20017;-82
2021/12/01 07:20:45;;;;;;;0.80;0.80;;;4.50;99.90;;;;;;6158418;23;20014;-82
2021/12/01 07:23:15;;;;;;;0.60;0.60;;;4.50;99.90;;;;;;6152678;23;20078;-83
2021/12/01 07:26:04;;;;;;;0.80;0.80;;;4.50;99.90;;;;;;6155214;23;20032;-82
2021/12/01 07:28:41;;;;;;;0.75;0.75;;;4.40;99.90;;;;;;6159534;23;20445;-82
2021/12/01 07:31:10;;;;;;;0.95;0.95;;;4.50;99.90;;;;;;6123418;23;20037;-83
2021/12/01 07:34:11;;;;;;;0.63;0.63;;;4.50;99.90;;;;;;6149091;23;20029;-83
2021/12/01 07:38:13;;;;;;;0.85;0.85;;;4.50;99.90;;;;;;6140249;23;20029;-83
2021/12/01 07:41:24;;;;;;;0.70;0.70;;;4.60;99.90;;;;;;6134402;23;20491;-82
2021/12/01 07:43:55;;;;;;;0.65;0.65;;;4.50;99.90;;;;;;6147087;23;20025;-82
2021/12/01 07:46:28;;;;;;;0.75;0.75;;;4.60;99.90;;;;;;6122931;23;20078;-84
2021/12/01 07:49:10;;;;;;;0.80;0.80;;;4.70;99.90;;;;;;6102986;23;20022;-82
2021/12/01 07:51:41;;;;;;;0.80;0.80;;;4.70;99.90;;;;;;6146393;23;20030;-83
2021/12/01 07:54:27;;;;;;;0.55;0.55;;;4.70;99.90;;;;;;6107823;23;20354;-83
2021/12/01 07:57:12;;;;;;;0.93;0.93;;;4.70;99.90;;;;;;6104554;23;20074;-83
2021/12/01 07:59:58;;;;;;;0.85;0.85;;;4.80;99.90;;;;;;6149048;23;20033;-82
2021/12/01 08:02:32;;;;;;;2.20;2.05;;;4.80;99.90;;;;;;6156743;23;20032;-83
2021/12/01 08:05:03;;;;;;;0.77;0.77;;;4.90;99.90;;;;;;6160536;23;20013;-82
2021/12/01 08:07:35;;;;;;;0.70;0.70;;;4.80;99.90;;;;;;6125481;23;20025;-83
2021/12/01 08:10:05;;;;;;;0.80;0.80;;;4.90;99.90;;;;;;6122804;23;20353;-83
2021/12/01 08:12:36;;;;;;;0.50;0.50;;;4.90;99.90;;;;;;6126334;23;20021;-83
2021/12/01 08:15:08;;;;;;;0.73;0.73;;;5.00;99.90;;;;;;6154174;23;20025;-82
2021/12/01 08:17:39;;;;;;;10.90;1.20;;;5.10;99.90;;;;;;6126355;23;20026;-82
2021/12/01 08:20:11;;;;;;;1.00;0.80;;;5.10;99.90;;;;;;6125072;23;20368;-83
2021/12/01 08:22:42;;;;;;;0.60;0.60;;;5.10;99.90;;;;;;6101832;23;20076;-83
2021/12/01 08:25:16;;;;;;;0.90;0.90;;;5.10;99.90;;;;;;6159037;23;20311;-83
2021/12/01 08:27:53;;;;;;;0.70;0.70;;;5.10;99.90;;;;;;6125738;23;20022;-83
2021/12/01 08:30:32;;;;;;;0.77;0.77;;;5.10;99.90;;;;;;6101037;23;20022;-83
2021/12/01 08:33:02;;;;;;;5.63;1.00;;;5.20;99.90;;;;;;6126722;23;20013;-83
2021/12/01 08:35:42;;;;;;;0.70;0.70;;;5.10;99.90;;;;;;6095992;23;20024;-83
2021/12/01 08:38:14;;;;;;;8.95;1.17;;;5.20;99.90;;;;;;6125352;23;20477;-82
2021/12/01 08:40:50;;;;;;;0.83;0.83;;;5.20;99.90;;;;;;6131159;23;20014;-83
2021/12/01 08:43:26;;;;;;;2.42;1.60;;;5.20;99.90;;;;;;6073712;23;20026;-83
2021/12/01 08:46:02;;;;;;;0.70;0.70;;;5.20;99.90;;;;;;6069907;23;20190;-83
2021/12/01 08:48:36;;;;;;;0.82;0.82;;;5.30;99.90;;;;;;6072393;23;20018;-83
2021/12/01 08:51:06;;;;;;;1.85;0.90;;;5.30;99.90;;;;;;6097401;23;20030;-84
2021/12/01 08:53:51;;;;;;;0.70;0.70;;;5.30;99.90;;;;;;6048182;23;20065;-83
2021/12/01 08:56:26;;;;;;;1.05;0.73;;;5.40;99.90;;;;;;5999094;23;20029;-83
2021/12/01 08:58:54;;;;;;;0.77;0.77;;;5.50;99.90;;;;;;6046837;23;20022;-83
2021/12/01 09:01:30;;;;;;;0.80;0.80;;;5.80;99.90;;;;;;6046304;23;20334;-83
2021/12/01 09:04:08;;;;;;;0.88;0.88;;;5.80;99.90;;;;;;6069863;23;20419;-83
2021/12/01 09:06:38;;;;;;;1.30;0.82;;;6.00;99.90;;;;;;6086232;23;20498;-83
2021/12/01 09:09:21;;;;;;;1.02;0.93;;;6.00;99.90;;;;;;6070595;23;20042;-84
2021/12/01 09:12:04;;;;;;;0.80;0.80;;;5.90;99.90;;;;;;6044781;23;20030;-83
2021/12/01 09:14:51;;;;;;;0.52;0.52;;;5.90;99.90;;;;;;6073124;23;20093;-84
2021/12/01 09:17:57;;;;;;;0.80;0.80;;;5.80;99.90;;;;;;6106945;23;20026;-83
2021/12/01 09:20:27;;;;;;;0.80;0.80;;;5.80;99.90;;;;;;6056620;23;20043;-84
2021/12/01 09:23:15;;;;;;;1.13;1.00;;;6.00;99.90;;;;;;6058101;23;20030;-84
2021/12/01 09:26:05;;;;;;;1.92;0.90;;;6.30;99.90;;;;;;6071452;23;20030;-84
2021/12/01 09:28:47;;;;;;;0.60;0.60;;;6.80;99.90;;;;;;6120708;23;20018;-84
2021/12/01 09:35:32;;;;;;;0.50;0.50;;;6.40;99.90;;;;;;6034957;23;20026;-84
2021/12/01 09:38:38;;;;;;;0.63;0.60;;;6.50;99.90;;;;;;5996819;23;20026;-84
2021/12/01 09:41:32;;;;;;;0.88;0.70;;;7.00;99.90;;;;;;6029840;23;20021;-84
2021/12/01 09:44:42;;;;;;;0.60;0.60;;;7.00;99.90;;;;;;6035455;23;20018;-84
2021/12/01 09:47:29;;;;;;;1.10;1.10;;;7.00;99.90;;;;;;5986459;23;20032;-84
2021/12/01 09:50:24;;;;;;;0.60;0.60;;;7.20;99.90;;;;;;5999162;23;20055;-85
2021/12/01 09:54:01;;;;;;;0.57;0.57;;;7.40;99.90;;;;;;6021189;23;20482;-84
2021/12/01 09:58:13;;;;;;;0.82;0.60;;;7.30;99.90;;;;;;6004543;23;20297;-84
2021/12/01 10:09:58;;;;;;;0.60;0.60;;;7.70;99.90;;;;;;5950620;23;20020;-84
2021/12/01 10:13:27;;;;;;;0.55;0.55;;;7.50;99.90;;;;;;5981654;23;20028;-84
2021/12/01 10:16:41;;;;;;;0.75;0.75;;;7.60;99.90;;;;;;5964260;23;20071;-84
2021/12/01 10:19:32;;;;;;;0.70;0.70;;;8.00;99.90;;;;;;5943714;23;20071;-84
2021/12/01 10:23:05;;;;;;;;;;;;;;;;;;;;;
2021/12/01 10:27:16;;;;;;;0.70;0.70;;;8.00;99.90;;;;;;5931977;23;20031;-83
2021/12/01 10:30:31;;;;;;;;;;;;;;;;;;;;;
2021/12/01 10:34:31;;;;;;;1.17;0.82;;;8.50;99.90;;;;;;5943549;24;20032;-83
2021/12/01 10:37:56;;;;;;;0.68;0.68;;;8.30;99.90;;;;;;6003186;23;20019;-85
2021/12/01 10:45:49;;;;;;;0.50;0.50;;;8.40;99.90;;;;;;6049866;23;20081;-85
2021/12/01 10:49:52;;;;;;;0.50;0.50;;;8.40;99.90;;;;;;6035912;23;20037;-84
2021/12/01 10:53:43;;;;;;;0.50;0.50;;;8.50;99.90;;;;;;5990433;23;20026;-84
2021/12/01 11:02:12;;;;;;;0.60;0.60;;;8.60;99.90;;;;;;5949596;24;20472;-84
2021/12/01 11:06:47;;;;;;;0.73;0.73;;;8.60;99.90;;;;;;5910365;24;20051;-84
2021/12/01 11:09:28;;;;;;;;;;;;;;;;;;;;;
2021/12/01 11:20:54;;;;;;;0.60;0.60;;;8.60;99.90;;;;;;5955019;24;20033;-82
2021/12/01 11:29:53;;;;;;;0.60;0.60;;;8.60;99.90;;;;;;5938426;23;20028;-82
2021/12/01 11:48:01;;;;;;;0.60;0.60;;;8.70;99.90;;;;;;5764505;24;20037;-81
2021/12/01 11:50:32;;;;;;;0.40;0.40;;;8.80;99.90;;;;;;5853123;24;20029;-84
2021/12/01 11:53:10;;;;;;;0.40;0.40;;;8.70;99.90;;;;;;6008653;23;20018;-84
2021/12/01 11:56:15;;;;;;;0.40;0.40;;;8.60;99.90;;;;;;6032787;23;20035;-83
2021/12/01 11:58:51;;;;;;;0.43;0.43;;;8.60;99.90;;;;;;6026638;23;20022;-83
2021/12/01 12:01:22;;;;;;;1.10;0.50;;;8.60;99.90;;;;;;6035753;23;20502;-87
2021/12/01 12:03:53;;;;;;;0.85;0.70;;;8.60;99.90;;;;;;6065770;23;20219;-86
2021/12/01 12:06:31;;;;;;;0.60;0.60;;;8.50;99.90;;;;;;6099219;23;20026;-86
2021/12/01 12:09:06;;;;;;;0.60;0.55;;;8.50;99.90;;;;;;6133922;23;20741;-86
2021/12/01 12:11:45;;;;;;;0.80;0.80;;;8.50;99.90;;;;;;6120980;23;20025;-86
2021/12/01 12:14:21;;;;;;;0.50;0.50;;;8.50;99.90;;;;;;6099054;23;20036;-84
2021/12/01 12:17:07;;;;;;;0.57;0.55;;;8.50;99.90;;;;;;6100409;23;20018;-87
2021/12/01 12:19:55;;;;;;;0.88;0.77;;;8.50;99.90;;;;;;6099446;23;20025;-86
2021/12/01 12:22:34;;;;;;;0.40;0.40;;;8.40;99.90;;;;;;6075420;23;20025;-85
2021/12/01 12:25:05;;;;;;;0.50;0.50;;;8.40;99.90;;;;;;6097778;23;20017;-80
2021/12/01 12:27:43;;;;;;;0.77;0.77;;;8.40;99.90;;;;;;6125809;23;20025;-79
2021/12/01 12:30:13;;;;;;;0.68;0.68;;;8.30;99.90;;;;;;6156990;23;20029;-80
2021/12/01 12:32:44;;;;;;;1.10;0.95;;;8.00;99.90;;;;;;6160551;23;20014;-79
2021/12/01 12:35:15;;;;;;;1.58;1.48;;;7.80;99.90;;;;;;6153191;23;20267;-79
2021/12/01 12:37:44;;;;;;;1.05;0.70;;;7.70;99.90;;;;;;6159706;23;20341;-79
2021/12/01 12:40:20;;;;;;;1.02;0.95;;;7.60;99.90;;;;;;6130791;23;20440;-82
2021/12/01 12:43:08;;;;;;;0.95;0.93;;;7.60;99.90;;;;;;6129038;23;20025;-82
2021/12/01 12:45:58;;;;;;;1.25;1.17;;;7.60;99.90;;;;;;6162284;23;20516;-78
2021/12/01 12:48:52;;;;;;;1.00;1.00;;;7.60;99.90;;;;;;6089136;23;20033;-82
2021/12/01 12:51:26;;;;;;;1.15;0.88;;;7.50;99.90;;;;;;6147497;23;20021;-82
2021/12/01 12:54:00;;;;;;;1.05;0.82;;;7.50;99.90;;;;;;6151989;23;20020;-81
2021/12/01 12:56:40;;;;;;;0.70;0.70;;;7.50;99.90;;;;;;6151383;23;20017;-81
2021/12/01 12:59:22;;;;;;;1.52;1.42;;;7.50;99.90;;;;;;6127641;23;20028;-81
2021/12/01 13:01:53;;;;;;;0.82;0.82;;;7.40;99.90;;;;;;6151303;23;20017;-80
2021/12/01 13:05:05;;;;;;;1.08;1.08;;;7.40;99.90;;;;;;6127868;23;20019;-81
2021/12/01 13:07:46;;;;;;;1.00;0.93;;;7.50;99.90;;;;;;6153960;23;20565;-81
2021/12/01 13:10:27;;;;;;;1.10;0.75;;;7.50;99.90;;;;;;6102549;23;20017;-80
2021/12/01 13:13:06;;;;;;;1.42;1.05;;;7.50;99.90;;;;;;6127017;23;20017;-80
2021/12/01 13:15:40;;;;;;;0.70;0.70;;;7.60;99.90;;;;;;6129238;23;20030;-81
2021/12/01 13:18:20;;;;;;;1.48;1.38;;;7.60;99.90;;;;;;6159815;23;20022;-83
2021/12/01 13:20:53;;;;;;;0.50;0.50;;;7.90;99.90;;;;;;6151820;23;20025;-81
2021/12/01 13:23:34;;;;;;;1.13;0.90;;;8.10;99.90;;;;;;6155667;23;20349;-84
2021/12/01 13:26:05;;;;;;;0.40;0.40;;;8.30;99.90;;;;;;6125599;23;20021;-83
2021/12/01 13:28:39;;;;;;;0.50;0.50;;;8.30;99.90;;;;;;6151619;23;20014;-81
2021/12/01 13:31:10;;;;;;;0.40;0.40;;;8.50;99.90;;;;;;6154580;23;20641;-78
2021/12/01 13:34:02;;;;;;;0.40;0.40;;;8.50;99.90;;;;;;6151833;23;20033;-78
2021/12/01 13:36:42;;;;;;;0.75;0.75;;;8.60;99.90;;;;;;6160265;23;20041;-78
2021/12/01 13:39:18;;;;;;;0.50;0.50;;;8.70;99.90;;;;;;6126790;23;20021;-79
2021/12/01 13:41:45;;;;;;;0.73;0.73;;;8.90;99.90;;;;;;6162180;23;20014;-79
2021/12/01 13:44:21;;;;;;;0.60;0.60;;;8.80;99.90;;;;;;6152136;23;20022;-78
2021/12/01 13:47:09;;;;;;;0.50;0.50;;;8.70;99.90;;;;;;6155589;23;20029;-79
2021/12/01 13:49:50;;;;;;;1.30;0.52;;;8.70;99.90;;;;;;6176086;23;20025;-79
2021/12/01 13:52:45;;;;;;;0.70;0.70;;;8.70;99.90;;;;;;6165791;23;20598;-80
2021/12/01 13:55:16;;;;;;;2.45;0.70;;;8.60;99.90;;;;;;6184719;23;20024;-79
2021/12/01 13:58:04;;;;;;;1.55;1.00;;;8.60;99.90;;;;;;6192255;23;20437;-80
2021/12/01 14:00:37;;;;;;;3.03;1.15;;;8.30;99.90;;;;;;6161690;23;20021;-79
2021/12/01 14:03:07;;;;;;;0.80;0.80;;;8.10;99.90;;;;;;6186662;23;20035;-79
2021/12/01 14:05:35;;;;;;;0.60;0.60;;;8.10;99.90;;;;;;6191774;23;20016;-79
2021/12/01 14:08:28;;;;;;;0.85;0.85;;;8.20;99.90;;;;;;6156280;23;20025;-79
2021/12/01 14:11:27;;;;;;;1.60;0.90;;;8.10;99.90;;;;;;6185643;23;20465;-81
2021/12/01 14:14:06;;;;;;;0.50;0.50;;;8.20;99.90;;;;;;6131113;23;20440;-79
2021/12/01 14:16:48;;;;;;;0.50;0.50;;;8.60;99.90;;;;;;6156706;23;20032;-78
2021/12/01 14:19:18;;;;;;;1.05;0.60;;;8.80;99.90;;;;;;6159636;23;20036;-79
2021/12/01 14:21:50;;;;;;;0.50;0.50;;;8.70;99.90;;;;;;6190539;23;20494;-79
2021/12/01 14:24:26;;;;;;;1.30;0.47;;;8.70;99.90;;;;;;6155697;23;20032;-79
2021/12/01 14:27:03;;;;;;;0.68;0.45;;;8.60;99.90;;;;;;6107606;23;20043;-79
2021/12/01 14:29:37;;;;;;;0.50;0.50;;;8.60;99.90;;;;;;6156570;23;20455;-79
2021/12/01 14:32:11;;;;;;;2.38;0.60;;;8.70;99.90;;;;;;6156094;23;20028;-79
2021/12/01 14:34:41;;;;;;;0.52;0.52;;;8.90;99.90;;;;;;6161466;23;20332;-79
2021/12/01 14:37:12;;;;;;;0.75;0.75;;;8.90;99.90;;;;;;6167115;23;20013;-79
2021/12/01 14:39:40;;;;;;;0.40;0.40;;;8.80;99.90;;;;;;6183310;23;20380;-78
2021/12/01 14:42:09;;;;;;;0.70;0.70;;;8.70;99.90;;;;;;6162908;23;20025;-79
2021/12/01 14:44:40;;;;;;;0.50;0.50;;;8.80;99.90;;;;;;6193036;23;20017;-78
2021/12/01 14:47:13;;;;;;;0.65;0.60;;;8.80;99.90;;;;;;6155672;23;20032;-79
2021/12/01 14:49:47;;;;;;;0.50;0.50;;;8.60;99.90;;;;;;6184681;23;20028;-79
2021/12/01 14:52:39;;;;;;;0.88;0.85;;;8.70;99.90;;;;;;6156559;23;20542;-78
2021/12/01 14:55:11;;;;;;;0.40;0.40;;;8.80;99.90;;;;;;6185282;23;20032;-79
2021/12/01 14:57:49;;;;;;;0.55;0.55;;;8.80;99.90;;;;;;6191966;23;20028;-80
2021/12/01 15:00:30;;;;;;;0.40;0.40;;;8.80;99.90;;;;;;6165083;23;20017;-78